This is the latest recevied weather packets stored in our database for station/object M0ADS. If no packets are shown the sender has not sent any weather packets the latest 10 day(s).
| Time | Temp. | Humidity | Pressure | Rain* | Wind** | Luminosity | Snow |
|---|---|---|---|---|---|---|---|
| 1777657779 | 20.56° C | 54% | 1016.1 hPa | 0 mm | - | - | - |
| 1777656879 | 22.22° C | 52% | 1016.1 hPa | 0 mm | - | - | - |
| 1777655979 | 22.78° C | 51% | 1016 hPa | 0 mm | - | - | - |
| 1777655079 | 22.22° C | 51% | 1016.2 hPa | 0 mm | - | - | - |
| 1777654177 | 22.22° C | 50% | 1016.3 hPa | 0 mm | - | - | - |
| 1777653277 | 22.22° C | 50% | 1016.4 hPa | 0 mm | - | - | - |
| 1777652377 | 22.78° C | 49% | 1016.5 hPa | 0 mm | - | - | - |
| 1777651477 | 23.33° C | 48% | 1016.5 hPa | 0 mm | - | - | - |
| 1777650577 | 22.78° C | 50% | 1016.6 hPa | 0 mm | - | - | - |
| 1777649674 | 23.33° C | 48% | 1016.7 hPa | 0 mm | - | - | - |
| 1777648775 | 23.33° C | 47% | 1016.8 hPa | 0 mm | - | - | - |
| 1777647873 | 23.89° C | 48% | 1016.9 hPa | 0 mm | - | - | - |
| 1777646972 | 23.33° C | 48% | 1017.1 hPa | 0 mm | - | - | - |
| 1777645170 | 24.44° C | 46% | 1017.2 hPa | 0 mm | - | - | - |
| 1777644269 | 23.89° C | 46% | 1017.4 hPa | 0 mm | - | - | - |
| 1777643369 | 23.89° C | 46% | 1017.5 hPa | 0 mm | - | - | - |
| 1777642469 | 23.89° C | 45% | 1017.7 hPa | 0 mm | - | - | - |
| 1777641567 | 23.89° C | 44% | 1017.8 hPa | 0 mm | - | - | - |
| 1777640667 | 23.33° C | 44% | 1018 hPa | 0 mm | - | - | - |
| 1777639766 | 23.89° C | 45% | 1018.1 hPa | 0 mm | - | - | - |
| 1777638866 | 23.33° C | 45% | 1018.2 hPa | 0 mm | - | - | - |
| 1777637966 | 23.33° C | 45% | 1018.3 hPa | 0 mm | - | - | - |
| 1777637064 | 23.33° C | 44% | 1018.5 hPa | 0 mm | - | - | - |
| 1777636164 | 22.22° C | 44% | 1018.7 hPa | 0 mm | - | - | - |
| 1777635264 | 21.67° C | 44% | 1018.7 hPa | 0 mm | - | - | - |
* Rain latest hour (hover to see other rain measurements)
** Current wind speed in m/s (hover to see current wind gust speed)